Time;durP1;ratioP1;P1;durP2;ratioP2;P2;SDS_P1;SDS_P2;PMS_P1;PMS_P2;Temp;Humidity;BMP_temperature;BMP_pressure;BME280_temperature;BME280_humidity;BME280_pressure;Samples;Min_cycle;Max_cycle;Signal;HPM_P1;HPM_P2
2022/05/12 00:02:25;;;;;;;0.68;0.50;;;;;;;;;;4394769;32;20083;-67
2022/05/12 00:04:52;;;;;;;1.48;0.93;;;;;;;;;;4381828;32;20100;-68
2022/05/12 00:07:18;;;;;;;0.80;0.50;;;;;;;;;;4394714;32;20485;-69
2022/05/12 00:09:45;;;;;;;0.70;0.43;;;;;;;;;;4406993;32;20077;-67
2022/05/12 00:12:12;;;;;;;0.57;0.57;;;;;;;;;;4394222;32;20480;-66
2022/05/12 00:14:39;;;;;;;0.50;0.50;;;;;;;;;;4407244;32;20069;-67
2022/05/12 00:17:05;;;;;;;0.40;0.40;;;;;;;;;;4382254;32;20077;-66
2022/05/12 00:19:32;;;;;;;0.60;0.55;;;;;;;;;;4394349;32;20073;-69
2022/05/12 00:21:59;;;;;;;1.48;0.50;;;;;;;;;;4394730;32;20092;-68
2022/05/12 00:24:26;;;;;;;0.52;0.50;;;;;;;;;;4406346;32;20088;-67
2022/05/12 00:26:52;;;;;;;0.68;0.52;;;;;;;;;;4394200;32;20073;-66
2022/05/12 00:29:20;;;;;;;0.60;0.50;;;;;;;;;;4406697;32;20187;-67
2022/05/12 00:31:47;;;;;;;1.27;0.77;;;;;;;;;;4406548;32;20079;-67
2022/05/12 00:34:15;;;;;;;1.15;0.65;;;;;;;;;;4406165;32;20101;-68
2022/05/12 00:36:42;;;;;;;0.80;0.47;;;;;;;;;;4407113;32;20099;-68
2022/05/12 00:39:09;;;;;;;0.52;0.50;;;;;;;;;;4408922;32;20100;-68
2022/05/12 00:41:36;;;;;;;0.93;0.70;;;;;;;;;;4406458;32;20079;-68
2022/05/12 00:44:05;;;;;;;1.00;0.50;;;;;;;;;;4407019;32;20088;-68
2022/05/12 00:46:35;;;;;;;1.15;0.70;;;;;;;;;;4408277;32;20084;-67
2022/05/12 00:49:06;;;;;;;1.05;0.80;;;;;;;;;;4394068;32;20170;-67
2022/05/12 00:51:49;;;;;;;2.10;0.95;;;;;;;;;;4393801;32;20152;-66
2022/05/12 00:54:26;;;;;;;1.37;0.80;;;;;;;;;;4393715;32;20227;-65
2022/05/12 00:56:53;;;;;;;1.35;0.85;;;;;;;;;;4393449;32;20137;-67
2022/05/12 00:59:34;;;;;;;1.33;0.90;;;;;;;;;;3857148;37;20066;-68
2022/05/12 01:02:04;;;;;;;1.00;0.80;;;;;;;;;;4405771;32;20117;-67
2022/05/12 01:04:32;;;;;;;1.15;0.80;;;;;;;;;;4406559;32;20073;-67
2022/05/12 01:06:59;;;;;;;1.35;1.10;;;;;;;;;;4419788;32;20168;-66
2022/05/12 01:11:28;;;;;;;1.37;0.90;;;;;;;;;;3857280;37;20054;-67
2022/05/12 01:14:06;;;;;;;2.62;1.05;;;;;;;;;;4405434;32;20088;-67
2022/05/12 01:16:35;;;;;;;1.92;0.80;;;;;;;;;;4419642;32;20099;-68
2022/05/12 01:19:01;;;;;;;0.50;0.50;;;;;;;;;;4418414;32;20077;-67
2022/05/12 01:21:28;;;;;;;1.65;0.82;;;;;;;;;;4418883;32;20156;-67
2022/05/12 01:23:55;;;;;;;1.42;0.80;;;;;;;;;;4419733;32;20164;-68
2022/05/12 01:26:21;;;;;;;1.52;0.90;;;;;;;;;;4418984;32;20097;-68
2022/05/12 01:28:49;;;;;;;1.00;0.80;;;;;;;;;;4392600;32;20103;-68
2022/05/12 01:31:21;;;;;;;1.60;1.02;;;;;;;;;;4419260;32;20153;-67
2022/05/12 01:33:48;;;;;;;1.50;0.93;;;;;;;;;;4418281;32;20093;-68
2022/05/12 01:36:15;;;;;;;1.40;1.12;;;;;;;;;;4417465;32;20079;-68
2022/05/12 01:38:42;;;;;;;2.00;1.10;;;;;;;;;;4417697;32;20168;-67
2022/05/12 01:41:08;;;;;;;2.08;1.00;;;;;;;;;;4417564;32;20088;-67
2022/05/12 01:43:35;;;;;;;1.33;1.00;;;;;;;;;;4419272;32;20172;-68
2022/05/12 01:46:02;;;;;;;0.82;0.68;;;;;;;;;;4419618;32;20156;-68
2022/05/12 01:48:29;;;;;;;1.25;0.80;;;;;;;;;;4392843;32;20147;-67
2022/05/12 01:50:55;;;;;;;1.02;0.93;;;;;;;;;;4419354;32;20172;-67
2022/05/12 01:53:22;;;;;;;1.20;1.00;;;;;;;;;;4418447;32;20602;-67
2022/05/12 01:55:49;;;;;;;2.00;1.25;;;;;;;;;;4405054;32;20069;-68
2022/05/12 01:58:17;;;;;;;1.52;1.12;;;;;;;;;;4419158;32;20081;-66
2022/05/12 02:00:44;;;;;;;1.58;1.17;;;;;;;;;;4418040;32;20160;-67
2022/05/12 02:03:10;;;;;;;1.37;1.17;;;;;;;;;;4418167;32;20081;-67
2022/05/12 02:05:38;;;;;;;1.20;1.10;;;;;;;;;;4404556;32;20095;-67
2022/05/12 02:08:06;;;;;;;1.42;1.25;;;;;;;;;;4405187;32;20167;-66
2022/05/12 02:10:38;;;;;;;1.27;1.17;;;;;;;;;;4417141;32;20189;-67
2022/05/12 02:13:06;;;;;;;1.98;1.10;;;;;;;;;;4416692;32;20099;-67
2022/05/12 02:15:32;;;;;;;2.00;1.42;;;;;;;;;;4405419;32;20073;-67
2022/05/12 02:17:59;;;;;;;1.37;1.20;;;;;;;;;;4418734;32;20148;-67
2022/05/12 02:20:26;;;;;;;1.80;1.42;;;;;;;;;;4404864;32;20089;-66
2022/05/12 02:22:53;;;;;;;2.42;1.10;;;;;;;;;;4381986;32;20074;-68
2022/05/12 02:25:20;;;;;;;2.08;1.10;;;;;;;;;;4394720;32;20103;-66
2022/05/12 02:27:47;;;;;;;1.48;1.17;;;;;;;;;;4394596;32;20073;-67
2022/05/12 02:30:20;;;;;;;1.25;0.95;;;;;;;;;;4407165;32;20077;-68
2022/05/12 02:32:47;;;;;;;1.42;1.02;;;;;;;;;;4407045;32;20089;-67
2022/05/12 02:35:14;;;;;;;1.75;1.27;;;;;;;;;;4407332;32;20520;-68
2022/05/12 02:37:41;;;;;;;1.55;1.23;;;;;;;;;;4406802;32;20455;-68
2022/05/12 02:40:09;;;;;;;2.35;1.08;;;;;;;;;;4407147;32;20085;-68
2022/05/12 02:42:36;;;;;;;1.92;1.25;;;;;;;;;;4406643;32;20081;-67
2022/05/12 02:45:04;;;;;;;1.27;0.98;;;;;;;;;;4407288;32;20508;-68
2022/05/12 02:47:31;;;;;;;2.25;1.30;;;;;;;;;;4406990;32;20230;-67
2022/05/12 02:49:57;;;;;;;2.62;1.15;;;;;;;;;;4410361;32;20085;-67
2022/05/12 02:52:24;;;;;;;1.62;1.20;;;;;;;;;;4408476;32;20064;-67
2022/05/12 02:54:51;;;;;;;1.80;1.20;;;;;;;;;;4406079;32;20069;-68
2022/05/12 02:57:18;;;;;;;1.45;1.35;;;;;;;;;;4406002;32;20180;-68
2022/05/12 02:59:44;;;;;;;1.80;1.05;;;;;;;;;;4406069;32;20081;-68
2022/05/12 03:02:11;;;;;;;1.30;1.20;;;;;;;;;;4407943;32;20144;-67
2022/05/12 03:04:38;;;;;;;1.58;1.20;;;;;;;;;;4406780;32;20086;-66
2022/05/12 03:07:04;;;;;;;1.15;0.90;;;;;;;;;;4407029;32;20476;-66
2022/05/12 03:09:31;;;;;;;1.90;1.08;;;;;;;;;;4406491;32;20652;-69
2022/05/12 03:11:57;;;;;;;1.83;1.17;;;;;;;;;;4406100;32;20461;-67
2022/05/12 03:14:24;;;;;;;1.35;1.08;;;;;;;;;;4394384;32;20086;-68
2022/05/12 03:16:53;;;;;;;2.20;1.20;;;;;;;;;;4408099;32;20089;-68
2022/05/12 03:19:21;;;;;;;1.75;1.20;;;;;;;;;;4406375;32;20145;-66
2022/05/12 03:21:48;;;;;;;3.25;1.40;;;;;;;;;;4394161;32;20166;-68
2022/05/12 03:24:21;;;;;;;2.72;1.55;;;;;;;;;;4406947;32;20091;-66
2022/05/12 03:26:48;;;;;;;2.78;1.92;;;;;;;;;;4406076;32;20073;-67
2022/05/12 03:29:15;;;;;;;5.25;1.98;;;;;;;;;;4393778;32;20089;-68
2022/05/12 03:31:41;;;;;;;1.40;1.30;;;;;;;;;;4406181;32;20096;-67
2022/05/12 03:34:08;;;;;;;3.67;1.62;;;;;;;;;;4392946;32;20096;-67
2022/05/12 03:36:35;;;;;;;2.40;1.80;;;;;;;;;;4393541;32;20096;-68
2022/05/12 03:39:03;;;;;;;2.85;2.00;;;;;;;;;;4394120;32;20190;-67
2022/05/12 03:41:31;;;;;;;2.85;2.28;;;;;;;;;;4407225;32;20160;-66
2022/05/12 03:46:42;;;;;;;7.25;4.20;;;;;;;;;;4405937;32;20089;-67
2022/05/12 03:49:09;;;;;;;10.35;5.43;;;;;;;;;;4407207;32;20164;-68
2022/05/12 03:51:36;;;;;;;10.98;5.07;;;;;;;;;;4393426;32;20160;-66
2022/05/12 03:54:03;;;;;;;5.75;3.30;;;;;;;;;;4406154;32;20084;-67
2022/05/12 03:56:31;;;;;;;5.78;2.75;;;;;;;;;;4407559;32;20152;-66
2022/05/12 03:58:58;;;;;;;3.08;2.08;;;;;;;;;;4405819;32;20080;-67
2022/05/12 04:01:25;;;;;;;2.87;1.85;;;;;;;;;;4406687;32;20088;-67
2022/05/12 04:03:51;;;;;;;3.15;2.05;;;;;;;;;;4405667;32;20088;-66
2022/05/12 04:06:18;;;;;;;3.70;2.80;;;;;;;;;;4393219;32;20080;-67
2022/05/12 04:08:45;;;;;;;3.70;2.50;;;;;;;;;;4406938;32;20180;-66
2022/05/12 04:11:12;;;;;;;2.87;1.95;;;;;;;;;;4392897;32;20295;-67
2022/05/12 04:13:41;;;;;;;3.15;1.95;;;;;;;;;;4393282;32;20079;-68
2022/05/12 04:16:08;;;;;;;3.37;1.30;;;;;;;;;;4405320;32;20081;-66
2022/05/12 04:18:35;;;;;;;2.25;1.35;;;;;;;;;;4406925;32;20182;-66
2022/05/12 04:21:02;;;;;;;3.10;1.20;;;;;;;;;;4406414;32;20533;-69
2022/05/12 04:23:28;;;;;;;2.12;1.67;;;;;;;;;;4406284;32;20525;-68
2022/05/12 04:25:55;;;;;;;2.25;1.35;;;;;;;;;;4405871;32;20087;-67
2022/05/12 04:28:22;;;;;;;1.52;1.30;;;;;;;;;;4404767;32;20152;-67
2022/05/12 04:30:48;;;;;;;2.90;1.50;;;;;;;;;;4392423;32;20169;-66
2022/05/12 04:36:00;;;;;;;3.10;2.40;;;;;;;;;;4405279;32;20153;-68
2022/05/12 04:38:27;;;;;;;4.55;2.62;;;;;;;;;;4404820;32;20088;-66
2022/05/12 04:40:54;;;;;;;5.05;3.80;;;;;;;;;;4405992;32;20065;-67
2022/05/12 04:43:20;;;;;;;6.43;3.70;;;;;;;;;;4380139;32;20634;-68
2022/05/12 04:45:47;;;;;;;2.62;1.80;;;;;;;;;;4404847;32;20073;-68
2022/05/12 04:48:14;;;;;;;3.03;2.10;;;;;;;;;;4406360;32;20162;-68
2022/05/12 04:50:41;;;;;;;3.05;2.45;;;;;;;;;;4405173;32;20081;-66
2022/05/12 04:53:08;;;;;;;3.35;2.47;;;;;;;;;;4405770;32;20082;-68
2022/05/12 04:55:35;;;;;;;5.10;3.00;;;;;;;;;;4404890;32;20093;-68
2022/05/12 04:58:02;;;;;;;4.70;2.90;;;;;;;;;;4392456;32;20165;-68
2022/05/12 05:00:40;;;;;;;6.05;2.80;;;;;;;;;;4405613;32;20084;-68
2022/05/12 05:03:08;;;;;;;6.35;2.70;;;;;;;;;;4395162;32;20177;-67
2022/05/12 05:05:35;;;;;;;3.80;2.30;;;;;;;;;;4406738;32;20169;-67
2022/05/12 05:08:02;;;;;;;3.25;1.73;;;;;;;;;;4404507;32;20330;-68
2022/05/12 05:10:28;;;;;;;2.55;1.77;;;;;;;;;;4404592;32;20086;-68
2022/05/12 05:12:56;;;;;;;6.90;2.20;;;;;;;;;;4404942;32;20090;-67
2022/05/12 05:15:24;;;;;;;2.10;1.60;;;;;;;;;;4404737;32;20227;-68
2022/05/12 05:17:51;;;;;;;2.28;1.05;;;;;;;;;;4405294;32;20088;-67
2022/05/12 05:20:24;;;;;;;1.17;0.85;;;;;;;;;;4392935;32;20085;-69
2022/05/12 05:22:51;;;;;;;1.02;0.80;;;;;;;;;;4391930;32;20112;-67
2022/05/12 05:25:18;;;;;;;0.43;0.43;;;;;;;;;;4392600;32;20058;-69
2022/05/12 05:27:46;;;;;;;0.88;0.80;;;;;;;;;;4404872;32;20157;-70
2022/05/12 05:30:16;;;;;;;1.05;0.75;;;;;;;;;;4405759;32;20176;-69
2022/05/12 05:32:43;;;;;;;1.60;0.60;;;;;;;;;;4391665;32;20109;-69
2022/05/12 05:35:12;;;;;;;1.17;0.47;;;;;;;;;;4404306;32;20078;-66
2022/05/12 05:37:39;;;;;;;1.23;0.60;;;;;;;;;;4406015;32;20088;-68
2022/05/12 05:40:07;;;;;;;1.55;0.50;;;;;;;;;;4404341;32;20495;-67
2022/05/12 05:42:35;;;;;;;0.65;0.65;;;;;;;;;;4404584;32;20085;-65
2022/05/12 05:45:10;;;;;;;0.70;0.43;;;;;;;;;;4404524;32;20080;-68
2022/05/12 05:47:39;;;;;;;0.35;0.35;;;;;;;;;;4380324;32;20085;-64
2022/05/12 05:50:08;;;;;;;0.50;0.50;;;;;;;;;;4391763;32;20120;-66
2022/05/12 05:55:21;;;;;;;1.00;0.60;;;;;;;;;;4404385;32;20498;-69
2022/05/12 05:57:47;;;;;;;0.62;0.62;;;;;;;;;;4406263;32;20091;-66
2022/05/12 06:00:16;;;;;;;0.50;0.50;;;;;;;;;;4408222;32;20189;-67
2022/05/12 06:02:42;;;;;;;1.62;0.77;;;;;;;;;;4406763;32;20073;-69
2022/05/12 06:05:10;;;;;;;0.80;0.80;;;;;;;;;;4407712;32;20073;-69
2022/05/12 06:07:38;;;;;;;1.02;0.77;;;;;;;;;;4393964;32;20078;-69
2022/05/12 06:10:06;;;;;;;0.35;0.35;;;;;;;;;;4406820;32;20627;-66
2022/05/12 06:12:34;;;;;;;0.62;0.57;;;;;;;;;;4407275;32;20499;-67
2022/05/12 06:15:01;;;;;;;0.73;0.70;;;;;;;;;;4394753;32;20177;-67
2022/05/12 06:17:28;;;;;;;1.08;0.98;;;;;;;;;;4394891;32;20082;-68
2022/05/12 06:19:55;;;;;;;0.80;0.80;;;;;;;;;;4408981;32;20086;-67
2022/05/12 06:22:22;;;;;;;0.82;0.68;;;;;;;;;;4394356;32;20158;-69
2022/05/12 06:24:49;;;;;;;0.93;0.90;;;;;;;;;;4406569;32;20085;-66
2022/05/12 06:27:20;;;;;;;1.90;0.90;;;;;;;;;;4407106;32;20170;-66
2022/05/12 06:29:47;;;;;;;1.40;1.08;;;;;;;;;;4408396;32;20534;-68
2022/05/12 06:32:15;;;;;;;1.12;1.02;;;;;;;;;;4406524;32;20124;-68
2022/05/12 06:34:42;;;;;;;2.20;1.30;;;;;;;;;;4382371;32;20443;-69
2022/05/12 06:37:10;;;;;;;1.40;1.30;;;;;;;;;;4407957;32;20488;-69
2022/05/12 06:39:37;;;;;;;1.50;1.37;;;;;;;;;;4406898;32;20080;-66
2022/05/12 06:42:04;;;;;;;1.48;1.37;;;;;;;;;;4381803;32;20088;-67
2022/05/12 06:44:31;;;;;;;1.62;1.50;;;;;;;;;;4406430;32;20176;-69
2022/05/12 06:47:19;;;;;;;1.53;1.37;;;;;;;;;;3831443;37;20473;-69
2022/05/12 06:49:50;;;;;;;1.45;1.35;;;;;;;;;;4404399;32;20174;-69
2022/05/12 06:52:17;;;;;;;2.35;0.65;;;;;;;;;;4377186;32;20124;-69
2022/05/12 06:54:44;;;;;;;1.42;0.88;;;;;;;;;;4403412;32;20536;-67
2022/05/12 06:57:11;;;;;;;0.62;0.60;;;;;;;;;;4390363;32;20085;-69
2022/05/12 06:59:41;;;;;;;0.85;0.70;;;;;;;;;;4377448;32;20234;-70
2022/05/12 07:02:08;;;;;;;0.68;0.62;;;;;;;;;;4390340;32;20145;-68
2022/05/12 07:04:35;;;;;;;1.42;0.90;;;;;;;;;;4364808;32;20088;-68
2022/05/12 07:07:02;;;;;;;1.77;1.20;;;;;;;;;;4377371;32;20113;-70
2022/05/12 07:09:30;;;;;;;0.90;0.77;;;;;;;;;;4390089;32;20460;-69
2022/05/12 07:11:56;;;;;;;1.05;1.00;;;;;;;;;;4404348;32;20077;-68
2022/05/12 07:14:23;;;;;;;1.35;1.05;;;;;;;;;;4390680;32;20132;-69
2022/05/12 07:16:50;;;;;;;1.98;1.08;;;;;;;;;;4383971;32;20505;-69
2022/05/12 07:19:17;;;;;;;2.45;1.20;;;;;;;;;;4379531;32;20093;-68
2022/05/12 07:27:16;;;;;;;1.77;1.25;;;;;;;;;;4403312;32;20558;-69
2022/05/12 07:29:43;;;;;;;2.53;1.45;;;;;;;;;;4390177;32;20069;-70
2022/05/12 07:32:10;;;;;;;2.12;1.37;;;;;;;;;;4389022;32;20500;-69
2022/05/12 07:34:37;;;;;;;2.62;1.25;;;;;;;;;;4377490;32;20081;-70
2022/05/12 07:37:04;;;;;;;1.70;1.12;;;;;;;;;;4389421;32;20078;-68
2022/05/12 07:39:31;;;;;;;1.30;1.15;;;;;;;;;;4389561;32;20147;-70
2022/05/12 07:42:00;;;;;;;1.37;0.85;;;;;;;;;;4376388;32;20093;-69
2022/05/12 07:44:34;;;;;;;1.20;0.82;;;;;;;;;;4376486;32;20078;-66
2022/05/12 07:47:03;;;;;;;2.12;1.08;;;;;;;;;;4389538;32;20220;-71
2022/05/12 07:49:32;;;;;;;1.08;0.98;;;;;;;;;;4389397;32;20078;-69
2022/05/12 07:51:59;;;;;;;3.00;1.25;;;;;;;;;;4376919;32;20571;-68
2022/05/12 07:54:26;;;;;;;1.20;1.10;;;;;;;;;;4364670;32;20090;-69
2022/05/12 07:56:53;;;;;;;1.02;0.85;;;;;;;;;;4400831;32;20098;-70
2022/05/12 07:59:20;;;;;;;2.03;1.40;;;;;;;;;;4392783;32;20093;-69
2022/05/12 08:01:47;;;;;;;1.80;1.27;;;;;;;;;;4379309;32;20074;-70
2022/05/12 08:04:14;;;;;;;1.85;1.10;;;;;;;;;;4392884;32;20508;-66
2022/05/12 08:06:43;;;;;;;1.37;1.02;;;;;;;;;;4392716;32;20054;-69
2022/05/12 08:09:10;;;;;;;2.62;1.20;;;;;;;;;;4379145;32;20113;-67
2022/05/12 08:11:36;;;;;;;1.15;1.00;;;;;;;;;;4378606;32;20174;-70
2022/05/12 08:14:03;;;;;;;1.92;0.65;;;;;;;;;;4392693;32;20103;-67
2022/05/12 08:16:30;;;;;;;1.10;0.75;;;;;;;;;;4378188;32;20137;-66
2022/05/12 08:18:57;;;;;;;0.60;0.60;;;;;;;;;;4392596;32;20511;-66
2022/05/12 08:21:23;;;;;;;2.37;1.25;;;;;;;;;;4366366;32;20112;-66
2022/05/12 08:23:51;;;;;;;1.83;0.90;;;;;;;;;;4366502;32;20074;-66
2022/05/12 08:26:18;;;;;;;0.95;0.60;;;;;;;;;;4392750;32;20143;-66
2022/05/12 08:28:49;;;;;;;1.12;0.90;;;;;;;;;;4379356;32;20169;-67
2022/05/12 08:31:16;;;;;;;2.05;1.02;;;;;;;;;;4367008;32;20093;-67
2022/05/12 08:33:43;;;;;;;0.70;0.70;;;;;;;;;;4366687;32;20186;-67
2022/05/12 08:36:10;;;;;;;0.77;0.65;;;;;;;;;;4366094;32;20276;-68
2022/05/12 08:38:40;;;;;;;0.43;0.43;;;;;;;;;;4366844;32;20092;-67
2022/05/12 08:41:19;;;;;;;0.88;0.70;;;;;;;;;;4393056;32;20093;-69
2022/05/12 08:44:08;;;;;;;0.75;0.60;;;;;;;;;;4392837;32;20086;-66
2022/05/12 08:46:43;;;;;;;1.15;0.70;;;;;;;;;;4378630;32;20089;-68
2022/05/12 08:49:29;;;;;;;1.08;0.98;;;;;;;;;;4393522;32;20444;-68
2022/05/12 08:52:07;;;;;;;0.60;0.53;;;;;;;;;;4365874;32;20233;-65
2022/05/12 08:54:36;;;;;;;0.93;0.50;;;;;;;;;;4378541;32;20154;-64
2022/05/12 08:57:05;;;;;;;0.60;0.60;;;;;;;;;;4377978;32;20517;-64
2022/05/12 08:59:33;;;;;;;1.48;0.77;;;;;;;;;;4377873;32;20200;-65
2022/05/12 09:02:27;;;;;;;0.70;0.70;;;;;;;;;;4366098;32;20176;-67
2022/05/12 09:05:07;;;;;;;0.85;0.70;;;;;;;;;;4378258;32;20085;-64
2022/05/12 09:07:55;;;;;;;0.98;0.73;;;;;;;;;;4365553;32;20118;-68
2022/05/12 09:10:48;;;;;;;0.98;0.75;;;;;;;;;;4377581;32;20173;-67
2022/05/12 09:13:42;;;;;;;1.48;0.65;;;;;;;;;;4391698;32;20085;-66
2022/05/12 09:16:24;;;;;;;1.42;0.80;;;;;;;;;;4377946;32;20100;-68
2022/05/12 09:18:53;;;;;;;0.65;0.60;;;;;;;;;;4365469;32;20155;-69
2022/05/12 09:21:35;;;;;;;1.52;0.70;;;;;;;;;;4378100;32;20105;-69
2022/05/12 09:24:03;;;;;;;3.22;1.00;;;;;;;;;;4377810;32;20173;-70
2022/05/12 09:26:40;;;;;;;2.08;0.73;;;;;;;;;;4377701;32;20081;-69
2022/05/12 09:29:17;;;;;;;0.85;0.45;;;;;;;;;;4396118;32;20133;-70
2022/05/12 09:31:54;;;;;;;0.85;0.62;;;;;;;;;;4395117;32;20080;-68
2022/05/12 09:34:30;;;;;;;0.95;0.60;;;;;;;;;;4378120;32;20074;-66
2022/05/12 09:37:09;;;;;;;2.03;1.37;;;;;;;;;;4365433;32;20150;-70
2022/05/12 09:39:42;;;;;;;0.93;0.82;;;;;;;;;;4366014;32;20093;-69
2022/05/12 09:42:28;;;;;;;0.90;0.90;;;;;;;;;;4377515;32;20157;-69
2022/05/12 09:44:58;;;;;;;1.37;0.80;;;;;;;;;;4340395;32;20082;-68
2022/05/12 09:47:28;;;;;;;0.65;0.65;;;;;;;;;;4377610;32;20089;-67
2022/05/12 09:50:17;;;;;;;1.05;0.80;;;;;;;;;;4364997;32;20077;-70
2022/05/12 09:52:57;;;;;;;2.55;1.20;;;;;;;;;;4353059;32;20070;-66
2022/05/12 09:55:28;;;;;;;1.58;1.00;;;;;;;;;;4364566;32;20082;-67
2022/05/12 09:58:14;;;;;;;1.15;0.77;;;;;;;;;;4351989;32;20195;-67
2022/05/12 10:00:50;;;;;;;0.70;0.70;;;;;;;;;;4376761;32;20463;-65
2022/05/12 10:09:18;;;;;;;4.72;1.50;;;;;;;;;;4391815;32;20074;-65
2022/05/12 10:11:48;;;;;;;3.58;1.55;;;;;;;;;;4364840;32;20149;-68
2022/05/12 10:14:33;;;;;;;4.60;1.60;;;;;;;;;;4377143;32;20134;-66
2022/05/12 10:17:02;;;;;;;2.70;1.90;;;;;;;;;;4377267;32;20563;-67
2022/05/12 10:19:29;;;;;;;3.58;1.73;;;;;;;;;;4364445;32;20512;-69
2022/05/12 10:22:22;;;;;;;1.45;1.20;;;;;;;;;;4364740;32;20090;-69
2022/05/12 10:25:31;;;;;;;2.22;1.65;;;;;;;;;;4364151;32;20174;-67
2022/05/12 10:28:39;;;;;;;1.42;1.30;;;;;;;;;;4352162;32;20129;-66
2022/05/12 10:31:25;;;;;;;2.03;1.40;;;;;;;;;;4318934;32;20151;-68
2022/05/12 10:34:02;;;;;;;1.48;1.02;;;;;;;;;;4377641;32;20493;-69
2022/05/12 10:36:45;;;;;;;1.58;1.25;;;;;;;;;;4391670;32;20081;-69
2022/05/12 10:39:29;;;;;;;1.83;0.95;;;;;;;;;;4376821;32;20073;-67
2022/05/12 10:42:19;;;;;;;3.08;1.40;;;;;;;;;;4377413;32;20100;-69
2022/05/12 10:44:53;;;;;;;2.12;1.42;;;;;;;;;;4390611;32;20089;-68
2022/05/12 10:47:25;;;;;;;1.27;1.00;;;;;;;;;;4364251;32;20085;-69
2022/05/12 10:49:58;;;;;;;1.70;1.25;;;;;;;;;;4391079;32;20078;-68
2022/05/12 10:52:46;;;;;;;2.15;1.42;;;;;;;;;;4370729;32;20093;-73
2022/05/12 10:56:03;;;;;;;4.10;1.20;;;;;;;;;;4363588;32;20507;-71
2022/05/12 10:58:42;;;;;;;2.93;1.33;;;;;;;;;;4357283;32;20102;-71
2022/05/12 11:01:15;;;;;;;2.28;1.30;;;;;;;;;;4375504;32;20174;-73
2022/05/12 11:04:27;;;;;;;2.40;1.40;;;;;;;;;;4364539;32;20093;-74
2022/05/12 11:06:59;;;;;;;1.25;0.93;;;;;;;;;;4378534;32;20072;-73
2022/05/12 11:09:32;;;;;;;2.58;1.23;;;;;;;;;;4356781;32;20143;-74
2022/05/12 11:12:26;;;;;;;1.33;0.90;;;;;;;;;;4375728;32;20061;-74
2022/05/12 11:15:03;;;;;;;3.00;1.17;;;;;;;;;;4380791;32;20515;-74
2022/05/12 11:17:57;;;;;;;2.42;1.30;;;;;;;;;;4364108;32;20074;-73
2022/05/12 11:20:36;;;;;;;1.33;0.90;;;;;;;;;;4360487;32;20528;-73
2022/05/12 11:23:07;;;;;;;3.30;2.20;;;;;;;;;;4361327;32;20086;-69
2022/05/12 11:25:53;;;;;;;4.87;2.08;;;;;;;;;;4374901;32;20078;-71
2022/05/12 11:31:44;;;;;;;2.28;1.27;;;;;;;;;;4361593;32;20070;-73
2022/05/12 11:34:15;;;;;;;2.37;1.58;;;;;;;;;;4364966;32;20085;-71
2022/05/12 11:36:50;;;;;;;2.85;1.80;;;;;;;;;;4365130;32;20562;-67
2022/05/12 11:39:39;;;;;;;2.35;1.40;;;;;;;;;;4352757;32;20073;-66
2022/05/12 11:44:23;;;;;;;2.40;1.50;;;;;;;;;;4390359;32;20510;-66
2022/05/12 11:45:49;;;;;;;2.60;1.52;;;;;;;;;;4370271;32;20113;-67
2022/05/12 11:48:22;;;;;;;1.50;1.40;;;;;;;;;;4337053;32;20622;-66
2022/05/12 11:51:26;;;;;;;1.95;1.30;;;;;;;;;;4375593;32;20085;-77
2022/05/12 11:54:05;;;;;;;1.10;0.85;;;;;;;;;;4364417;32;20116;-73
2022/05/12 11:56:48;;;;;;;2.47;1.20;;;;;;;;;;4374750;32;20160;-72
2022/05/12 11:59:26;;;;;;;1.08;0.90;;;;;;;;;;4375977;32;20445;-71
2022/05/12 12:01:57;;;;;;;3.28;1.00;;;;;;;;;;4391003;32;20082;-72
2022/05/12 12:05:03;;;;;;;2.67;1.10;;;;;;;;;;4349723;32;20525;-70
2022/05/12 12:07:32;;;;;;;2.28;1.30;;;;;;;;;;4304577;33;20513;-70
2022/05/12 12:10:28;;;;;;;2.12;1.35;;;;;;;;;;4311120;33;20120;-70
2022/05/12 12:13:16;;;;;;;4.22;1.80;;;;;;;;;;4338792;32;20086;-70
2022/05/12 12:15:59;;;;;;;2.12;1.48;;;;;;;;;;4386476;32;20077;-72
2022/05/12 12:18:52;;;;;;;2.33;1.40;;;;;;;;;;4352817;32;20082;-66
2022/05/12 12:22:38;;;;;;;1.60;1.27;;;;;;;;;;3799764;37;20094;-74
2022/05/12 12:25:23;;;;;;;1.77;1.23;;;;;;;;;;4365019;32;20452;-75
2022/05/12 12:28:05;;;;;;;1.60;1.50;;;;;;;;;;4370273;32;20070;-77
2022/05/12 12:30:34;;;;;;;1.48;1.35;;;;;;;;;;4369406;32;20112;-75
2022/05/12 12:33:19;;;;;;;3.10;1.50;;;;;;;;;;4352938;32;20609;-75
2022/05/12 12:36:00;;;;;;;1.35;1.20;;;;;;;;;;4351399;32;20098;-74
2022/05/12 12:38:46;;;;;;;1.98;1.40;;;;;;;;;;4365867;32;20094;-73
2022/05/12 12:41:34;;;;;;;1.70;1.40;;;;;;;;;;4366792;32;20108;-73
2022/05/12 12:44:18;;;;;;;4.45;1.50;;;;;;;;;;4346087;32;20094;-75
2022/05/12 12:47:12;;;;;;;2.20;1.65;;;;;;;;;;4342400;32;20262;-72
2022/05/12 12:50:21;;;;;;;3.40;1.77;;;;;;;;;;4357763;32;20122;-74
2022/05/12 12:52:50;;;;;;;1.52;1.33;;;;;;;;;;4340611;32;20075;-74
2022/05/12 12:58:05;;;;;;;1.75;1.23;;;;;;;;;;4365529;32;20070;-72
2022/05/12 13:00:35;;;;;;;1.65;1.25;;;;;;;;;;4351744;32;20171;-73
2022/05/12 13:03:05;;;;;;;1.80;1.55;;;;;;;;;;4361008;32;20748;-68
2022/05/12 13:05:33;;;;;;;4.50;2.05;;;;;;;;;;4354923;32;20094;-72
2022/05/12 13:08:06;;;;;;;1.30;1.20;;;;;;;;;;4365678;32;20097;-75
2022/05/12 13:10:42;;;;;;;1.58;1.27;;;;;;;;;;4353554;32;20082;-72
2022/05/12 13:13:09;;;;;;;2.08;1.45;;;;;;;;;;4348082;32;20101;-71
2022/05/12 13:15:39;;;;;;;1.35;0.77;;;;;;;;;;4347106;32;20113;-70
2022/05/12 13:18:09;;;;;;;1.58;1.00;;;;;;;;;;4356780;32;20101;-72
2022/05/12 13:20:43;;;;;;;1.12;0.73;;;;;;;;;;4358648;32;20102;-74
2022/05/12 13:23:23;;;;;;;1.70;0.88;;;;;;;;;;4354652;32;20106;-70
2022/05/12 13:25:52;;;;;;;1.30;0.80;;;;;;;;;;4362227;32;20089;-63
2022/05/12 13:28:27;;;;;;;0.75;0.75;;;;;;;;;;4366207;32;20070;-73
2022/05/12 13:31:18;;;;;;;0.70;0.70;;;;;;;;;;4341220;32;20082;-73
2022/05/12 13:34:24;;;;;;;1.15;1.00;;;;;;;;;;4341362;32;20086;-72
2022/05/12 13:36:54;;;;;;;1.15;0.90;;;;;;;;;;4329264;33;20591;-73
2022/05/12 13:39:50;;;;;;;2.60;1.42;;;;;;;;;;4336898;32;20086;-79
2022/05/12 13:42:29;;;;;;;2.45;1.10;;;;;;;;;;4352102;32;20155;-77
2022/05/12 13:44:58;;;;;;;2.42;1.45;;;;;;;;;;4352748;32;20079;-71
2022/05/12 13:47:36;;;;;;;1.37;0.93;;;;;;;;;;4321819;32;20074;-76
2022/05/12 13:50:09;;;;;;;1.27;0.98;;;;;;;;;;4351683;32;20075;-72
2022/05/12 13:52:53;;;;;;;1.75;1.02;;;;;;;;;;4353088;32;20538;-70
2022/05/12 13:55:24;;;;;;;3.55;1.35;;;;;;;;;;4354577;32;20098;-77
2022/05/12 13:58:09;;;;;;;2.70;1.70;;;;;;;;;;4354067;32;20198;-75
2022/05/12 14:00:42;;;;;;;1.42;0.93;;;;;;;;;;4359359;32;20105;-74
2022/05/12 14:03:30;;;;;;;2.80;1.92;;;;;;;;;;4341348;32;20234;-72
2022/05/12 14:06:09;;;;;;;3.03;1.37;;;;;;;;;;4355348;32;20086;-74
2022/05/12 14:08:36;;;;;;;2.20;1.58;;;;;;;;;;4359602;32;20594;-70
2022/05/12 14:11:02;;;;;;;2.00;1.30;;;;;;;;;;4360288;32;20142;-77
2022/05/12 14:19:40;;;;;;;1.45;1.20;;;;;;;;;;4356074;32;19993;-69
2022/05/12 14:22:13;;;;;;;1.70;1.30;;;;;;;;;;4342967;32;20070;-73
2022/05/12 14:24:42;;;;;;;3.67;2.25;;;;;;;;;;4352197;32;20147;-78
2022/05/12 14:27:10;;;;;;;2.55;1.33;;;;;;;;;;4339570;32;20074;-71
2022/05/12 14:29:38;;;;;;;2.42;1.20;;;;;;;;;;4337685;32;20070;-68
2022/05/12 14:32:05;;;;;;;3.50;1.70;;;;;;;;;;4346468;33;20131;-72
2022/05/12 14:34:31;;;;;;;1.27;1.17;;;;;;;;;;4345465;32;20167;-65
2022/05/12 14:37:02;;;;;;;2.28;1.40;;;;;;;;;;4359782;32;20196;-67
2022/05/12 14:39:31;;;;;;;4.05;2.15;;;;;;;;;;4353325;32;20157;-71
2022/05/12 14:41:58;;;;;;;2.28;1.45;;;;;;;;;;4350862;32;20156;-73
2022/05/12 14:44:24;;;;;;;2.00;1.48;;;;;;;;;;4351007;32;20179;-71
2022/05/12 14:46:54;;;;;;;2.92;1.95;;;;;;;;;;4355962;32;20535;-70
2022/05/12 14:49:30;;;;;;;2.62;1.27;;;;;;;;;;4329019;32;20101;-72
2022/05/12 14:51:59;;;;;;;1.40;1.27;;;;;;;;;;4358506;32;20082;-74
2022/05/12 14:54:26;;;;;;;2.28;1.37;;;;;;;;;;4348310;32;20071;-74
2022/05/12 14:56:56;;;;;;;2.85;1.65;;;;;;;;;;4338722;32;20089;-73
2022/05/12 14:59:23;;;;;;;2.15;1.62;;;;;;;;;;4345660;33;20082;-76
2022/05/12 15:01:51;;;;;;;2.30;1.52;;;;;;;;;;4350321;32;20160;-72
2022/05/12 15:04:18;;;;;;;2.17;1.55;;;;;;;;;;4342380;32;20059;-74
2022/05/12 15:06:45;;;;;;;3.35;1.80;;;;;;;;;;4353653;32;20519;-73
2022/05/12 15:09:12;;;;;;;2.45;1.33;;;;;;;;;;4352818;32;20086;-76
2022/05/12 15:11:39;;;;;;;2.10;1.42;;;;;;;;;;4344520;32;20156;-73
2022/05/12 15:15:38;;;;;;;3.03;1.60;;;;;;;;;;3825573;37;20086;-70
2022/05/12 15:18:04;;;;;;;2.30;1.87;;;;;;;;;;4397373;32;20236;-73
2022/05/12 15:20:31;;;;;;;2.35;2.10;;;;;;;;;;4398602;32;20087;-74
2022/05/12 15:23:00;;;;;;;2.92;2.10;;;;;;;;;;4372516;32;20157;-73
2022/05/12 15:25:26;;;;;;;2.85;2.00;;;;;;;;;;4398849;32;20077;-72
2022/05/12 15:27:53;;;;;;;2.72;2.00;;;;;;;;;;4381795;32;20077;-69
2022/05/12 15:30:22;;;;;;;2.08;1.67;;;;;;;;;;4395520;32;20076;-72
2022/05/12 15:32:49;;;;;;;2.92;1.87;;;;;;;;;;4368708;32;20065;-71
2022/05/12 15:35:16;;;;;;;3.55;1.92;;;;;;;;;;4383918;32;20579;-68
2022/05/12 15:37:43;;;;;;;2.30;1.48;;;;;;;;;;4381607;32;20085;-65
2022/05/12 15:40:12;;;;;;;1.75;1.33;;;;;;;;;;4382795;32;20499;-65
2022/05/12 15:42:39;;;;;;;1.60;1.45;;;;;;;;;;4369736;32;20092;-73
2022/05/12 15:45:06;;;;;;;2.55;1.45;;;;;;;;;;4374556;32;20147;-72
2022/05/12 15:47:44;;;;;;;3.83;1.50;;;;;;;;;;4380784;32;20186;-72
2022/05/12 15:50:22;;;;;;;2.17;1.65;;;;;;;;;;4361780;32;20101;-75